Nearby METAR Reports

 

KSJC - San Jose, California, USA
Distance from station: NE 14km
Updated: 26/09/2022 15:53
Clear
Clear
 Wind from NW
Wind: NW 17 km/h
Temperature: 23°C
Dew Point: 13°C
Humidity: 53%
Barometer: 1013.5 hPa
Clouds: Clear
Visibility: 16 km
2022/09/26 22:53 KSJC 262253Z 31009KT 10SM CLR 23/13 A2993 RMK AO2 SLP134 T02330133
KNUQ - Moffett Nas/Mtn, California, USA
Distance from station: N 14km
Updated: 26/09/2022 15:55
Clear
Clear
 Wind from NNW
Wind: NNW 17 km/h
Temperature: 21°C
Dew Point: 14°C
Humidity: 64%
Barometer: 1013.9 hPa
Clouds: Clear
Visibility: 14 km
2022/09/26 22:55 KNUQ 262255Z AUTO 33009KT 9SM CLR 21/14 A2994 RMK AO2
 
KPAO - Palo Alto, California, USA
Distance from station: NNW 23km
Updated: 26/09/2022 15:47
Clear
Clear
 Wind from NNW
Wind: NNW 22 km/h
Temperature: 21°C
Dew Point: 14°C
Humidity: 64%
Barometer: 1013.9 hPa
Clouds: Clear
Visibility: 16 km
2022/09/26 22:47 KPAO 262247Z 33012KT 10SM SKC 21/14 A2994
KRHV - San Jose/Reid, California, USA
Distance from station: ENE 19km
Updated: 26/09/2022 15:47
Clear
Clear
 Wind from NW
Wind: NW 13 km/h
Temperature: 26°C
Dew Point: 13°C
Humidity: 45%
Barometer: 1013.5 hPa
Clouds: Clear
Visibility: 16 km
2022/09/26 22:47 KRHV 262247Z 32007KT 10SM SKC 26/13 A2993
 
KOAK - Oakland, California, USA
Distance from station: NNW 50km
Updated: 26/09/2022 15:53
Few Clouds
Few Clouds
 Wind from WNW
Wind: WNW 30 km/h
Temperature: 19°C
Dew Point: 13°C
Humidity: 68%
Barometer: 1014.2 hPa
Clouds: Few Clouds
Visibility: 16 km
Cloud details: Few Clouds 213 m
Few Clouds 366 m
2022/09/26 22:53 KOAK 262253Z 29016KT 10SM FEW007 FEW012 19/13 A2995 RMK AO2 SLP142 T01890128
KSQL - San Carlos Airpo, California, USA
Distance from station: NW 34km
Updated: 26/09/2022 16:11
unable to load KSQL data RC=
unable to load KSQL data RC=
 
 
KSFO - San Francisco, California, USA
Distance from station: NW 49km
Updated: 26/09/2022 15:56
Few Clouds
Few Clouds
 Wind from WNW
Wind: WNW 37 km/h
Temperature: 18°C
Dew Point: 13°C
Humidity: 73%
Barometer: 1013.9 hPa
Clouds: Few Clouds
Visibility: 16 km
Cloud details: Few Clouds 244 m
2022/09/26 22:56 KSFO 262256Z 30020KT 10SM FEW008 18/13 A2994 RMK AO2 PK WND 30028/2240 SLP139 T01830128 $
KE16 - San Martin, California, USA
Distance from station: ESE 43km
Updated: 26/09/2022 16:11
unable to load KE16 data RC=
unable to load KE16 data RC=
 
 
KWVI - Watsonville, California, USA
Distance from station: SSE 44km
Updated: 26/09/2022 15:53
Clear
Clear
 Wind from WSW
Wind: WSW 15 km/h
Temperature: 18°C
Dew Point: 13°C
Humidity: 73%
Barometer: 1014.9 hPa
Clouds: Clear
Visibility: 16 km
2022/09/26 22:53 KWVI 262253Z AUTO 24008KT 10SM CLR 18/13 A2997 RMK AO2 SLP148 T01830133
KHAF - Half Moon Bay, California, USA
Distance from station: WNW 50km
Updated: 26/09/2022 15:55
Overcast
Overcast
 Wind from N
Wind: N 17 km/h
Temperature: 15°C
Dew Point: 14°C
Humidity: 94%
Barometer: 1015.2 hPa
Clouds: Overcast
Visibility: 11 km
Cloud details: Overcast 305 m
2022/09/26 22:55 KHAF 262255Z AUTO 35009KT 7SM OVC010 15/14 A2998 RMK AO2
 
KHWD - Hayward, California, USA
Distance from station: N 44km
Updated: 26/09/2022 15:54
Clear
Clear
 Wind from WNW
Wind: WNW 28 km/h
Temperature: 20°C
Dew Point: 13°C
Humidity: 64%
Barometer: 1013.9 hPa
Clouds: Clear
Visibility: 16 km
2022/09/26 22:54 KHWD 262254Z 29015KT 10SM CLR 20/13 A2994 RMK AO2 SLP149 T02000133
KLVK - Livermore, California, USA
Distance from station: NNE 51km
Updated: 26/09/2022 15:53
Clear
Clear
 Wind from W
Wind: W 17 km/h
Temperature: 29°C
Dew Point: 12°C
Humidity: 35%
Barometer: 1012.5 hPa
Clouds: Clear
Visibility: 16 km
2022/09/26 22:53 KLVK 262253Z 28009KT 10SM CLR 29/12 A2990 RMK AO2 SLP120 T02940122